Aviation Digital Data Service (ADDS)

Output produced by TAFs form (1433 UTC 24 July 2017)
found at http://www.aviationweather.gov/adds/tafs/
 
METAR text: ZSAM 241400Z 21002MPS 160V220 CAVOK 30/24 Q1005 NOSIG
Conditions at: ZSAM (XIAMEN , CN) observed 1400 UTC 24 July 2017
Temperature: 30.0°C (86°F)
Dewpoint: 24.0°C (75°F) [RH = 70%]
Pressure (altimeter): 29.68 inches Hg (1005.0 mb)
Winds: from the SSW (210 degrees) at 5 MPH (4 knots; 2.1 m/s)
Visibility: 6 or more miles (10+ km)
Ceiling: ceiling and visibility are OK
Clouds: unknown
Weather: no significant weather observed at this time

Forecast for: ZSAM (XIAMEN , CN)
Text: TAF ZSAM 240916Z 2412/2512 19004G09MPS 8000 SCT030 TX35/2506Z TN29/2421Z
Forecast period: 1200 UTC 24 July 2017 to 1200 UTC 25 July 2017
Forecast type: FROM: standard forecast or significant change
Winds: from the S (190 degrees) at 9 MPH (8 knots; 4.2 m/s)
gusting to 20 MPH (17 knots; 8.8 m/s)
Visibility: 5 miles (8 km)
Clouds: scattered clouds at 3000 feet AGL
Weather: no significant weather forecast for this period
Text: TEMPO 2506/2512 FEW026CB SCT030
Forecast period: 0600 to 1200 UTC 25 July 2017
Forecast type: TEMPORARY: The following changes expected for less than half the time period
Clouds: few clouds at 2600 feet AGL
scattered clouds at 3000 feet AGL
Weather: no significant weather forecast for this period